createdAt,value
2018-02-20T00:00:30.553Z,54.27
2018-02-20T00:02:59.308Z,61.23
2018-02-20T00:05:27.662Z,57.43
2018-02-20T00:07:56.053Z,68.73
2018-02-20T00:10:24.424Z,58.63
2018-02-20T00:12:52.823Z,63.83
2018-02-20T00:15:21.309Z,58.90
2018-02-20T00:17:49.676Z,65.80
2018-02-20T00:20:18.056Z,61.03
2018-02-20T00:22:46.428Z,58.20
2018-02-20T00:25:14.820Z,65.93
2018-02-20T00:27:43.168Z,61.33
2018-02-20T00:30:11.552Z,65.03
2018-02-20T00:32:39.959Z,73.17
2018-02-20T00:35:08.326Z,67.90
2018-02-20T00:37:36.711Z,66.60
2018-02-20T00:40:05.126Z,71.70
2018-02-20T00:42:33.497Z,63.80
2018-02-20T00:45:02.053Z,64.73
2018-02-20T00:47:30.439Z,64.97
2018-02-20T00:49:59.369Z,74.83
2018-02-20T00:52:28.216Z,71.20
2018-02-20T00:54:56.586Z,73.83
2018-02-20T00:57:24.964Z,84.10
2018-02-20T00:59:53.343Z,69.53
2018-02-20T01:02:21.706Z,70.53
2018-02-20T01:04:50.105Z,72.70
2018-02-20T01:07:18.481Z,69.97
2018-02-20T01:09:46.838Z,76.57
2018-02-20T01:12:15.184Z,76.23
2018-02-20T01:14:43.936Z,79.00
2018-02-20T01:17:12.319Z,78.97
2018-02-20T01:19:40.673Z,74.10
2018-02-20T01:22:09.047Z,80.07
2018-02-20T01:24:37.416Z,83.67
2018-02-20T01:27:05.780Z,77.43
2018-02-20T01:29:34.168Z,86.70
2018-02-20T01:32:02.538Z,81.73
2018-02-20T01:34:31.549Z,97.33
2018-02-20T01:36:59.923Z,97.33
2018-02-20T01:39:28.287Z,81.17
2018-02-20T01:41:56.663Z,86.90
2018-02-20T01:44:25.453Z,91.87
2018-02-20T01:46:54.216Z,88.57
2018-02-20T01:49:22.564Z,91.03
2018-02-20T01:51:50.948Z,85.00
2018-02-20T01:54:19.341Z,91.90
2018-02-20T01:56:47.810Z,83.03
2018-02-20T01:59:16.177Z,85.37
2018-02-20T02:01:44.556Z,112.33
2018-02-20T02:04:12.945Z,95.00
2018-02-20T02:06:41.328Z,90.77
2018-02-20T02:09:09.690Z,104.97
2018-02-20T02:11:38.072Z,91.00
2018-02-20T02:14:06.474Z,87.97
2018-02-20T02:16:34.940Z,104.80
2018-02-20T02:19:03.292Z,94.53
2018-02-20T02:21:31.652Z,87.90
2018-02-20T02:24:00.008Z,82.10
2018-02-20T02:26:28.942Z,93.17
2018-02-20T02:28:57.305Z,101.63
2018-02-20T02:31:25.663Z,98.50
2018-02-20T02:33:54.508Z,96.93
2018-02-20T02:36:22.881Z,98.63
2018-02-20T02:38:51.248Z,101.33
2018-02-20T02:41:19.618Z,92.40
2018-02-20T02:43:47.997Z,90.67
2018-02-20T02:46:16.438Z,87.30
2018-02-20T02:48:44.889Z,90.70
2018-02-20T02:51:13.255Z,89.77
2018-02-20T02:53:41.620Z,93.17
2018-02-20T02:56:09.999Z,97.17
2018-02-20T02:58:38.350Z,93.93
2018-02-20T03:01:07.110Z,91.27
2018-02-20T03:03:35.471Z,92.20
2018-02-20T03:06:03.926Z,92.03
2018-02-20T03:08:32.329Z,96.97
2018-02-20T03:11:00.687Z,87.67
2018-02-20T03:13:29.091Z,97.33
2018-02-20T03:15:57.454Z,97.30
2018-02-20T03:18:25.804Z,83.33
2018-02-20T03:20:54.262Z,97.97
2018-02-20T03:23:23.022Z,89.07
2018-02-20T03:25:52.202Z,94.60
2018-02-20T03:28:20.587Z,108.20
2018-02-20T03:30:48.950Z,80.50
2018-02-20T03:33:17.313Z,88.47
2018-02-20T03:35:45.716Z,86.30
2018-02-20T03:38:14.073Z,89.93
2018-02-20T03:40:42.446Z,97.47
2018-02-20T03:43:10.821Z,88.43
2018-02-20T03:45:39.199Z,104.13
2018-02-20T03:48:07.569Z,89.27
2018-02-20T03:50:36.332Z,93.40
2018-02-20T03:53:04.780Z,87.80
2018-02-20T03:55:33.188Z,105.40
2018-02-20T03:58:01.541Z,96.10
2018-02-20T04:00:30.021Z,103.43
2018-02-20T04:02:58.389Z,100.57
2018-02-20T04:05:26.778Z,99.17
2018-02-20T04:07:55.140Z,99.70
2018-02-20T04:10:23.496Z,97.33
2018-02-20T04:12:51.963Z,99.27
2018-02-20T04:15:20.720Z,100.07
2018-02-20T04:17:49.081Z,105.70
2018-02-20T04:20:17.435Z,100.57
2018-02-20T04:22:45.787Z,98.10
2018-02-20T04:25:14.634Z,103.93
2018-02-20T04:27:43.035Z,102.03
2018-02-20T04:30:11.405Z,99.30
2018-02-20T04:32:39.777Z,94.93
2018-02-20T04:35:08.164Z,120.37
2018-02-20T04:37:36.531Z,95.23
2018-02-20T04:40:05.213Z,106.20
2018-02-20T04:42:33.560Z,93.50
2018-02-20T04:45:01.936Z,106.03
2018-02-20T04:47:30.349Z,114.20
2018-02-20T04:49:58.716Z,101.77
2018-02-20T04:52:27.067Z,104.50
2018-02-20T04:54:55.555Z,106.03
2018-02-20T04:57:23.908Z,101.40
2018-02-20T04:59:52.746Z,94.10
2018-02-20T05:02:21.130Z,106.90
2018-02-20T05:04:49.538Z,103.20
2018-02-20T05:07:18.028Z,110.17
2018-02-20T05:09:46.921Z,98.63
2018-02-20T05:12:15.775Z,99.57
2018-02-20T05:14:44.132Z,106.77
2018-02-20T05:17:12.489Z,105.20
2018-02-20T05:19:40.864Z,107.23
2018-02-20T05:22:09.628Z,104.53
2018-02-20T05:24:38.007Z,109.17
2018-02-20T05:27:06.490Z,101.23
2018-02-20T05:29:35.764Z,101.23
2018-02-20T05:32:04.120Z,106.60
2018-02-20T05:34:32.489Z,98.60
2018-02-20T05:37:00.895Z,110.43
2018-02-20T05:39:29.287Z,110.17
2018-02-20T05:41:57.641Z,96.87
2018-02-20T05:44:26.012Z,100.53
2018-02-20T05:46:54.373Z,113.20
2018-02-20T05:49:22.796Z,101.40
2018-02-20T05:51:51.196Z,102.13
2018-02-20T05:54:19.571Z,111.83
2018-02-20T05:56:47.940Z,112.73
2018-02-20T05:59:16.413Z,119.00
2018-02-20T06:01:44.811Z,106.07
2018-02-20T06:04:13.174Z,110.27
2018-02-20T06:06:41.562Z,108.57
2018-02-20T06:09:09.936Z,101.90
2018-02-20T06:11:38.290Z,107.07
2018-02-20T06:14:06.664Z,106.67
2018-02-20T06:16:35.061Z,99.67
2018-02-20T06:19:03.424Z,112.53
2018-02-20T06:21:31.777Z,98.70
2018-02-20T06:24:00.191Z,122.63
2018-02-20T06:26:28.575Z,124.87
2018-02-20T06:28:56.937Z,103.47
2018-02-20T06:31:25.296Z,116.30
2018-02-20T06:33:53.667Z,115.63
2018-02-20T06:36:22.093Z,121.00
2018-02-20T06:38:50.543Z,104.43
2018-02-20T06:41:19.368Z,124.77
2018-02-20T06:43:47.748Z,121.93
2018-02-20T06:46:16.142Z,120.33
2018-02-20T06:48:44.619Z,121.37
2018-02-20T06:51:13.102Z,123.40
2018-02-20T06:53:41.476Z,116.57
2018-02-20T06:56:09.834Z,100.63
2018-02-20T06:58:38.203Z,107.47
2018-02-20T07:01:06.692Z,110.60
2018-02-20T07:03:35.054Z,106.97
2018-02-20T07:06:03.556Z,106.70
2018-02-20T07:08:31.933Z,107.73
2018-02-20T07:11:00.312Z,111.07
2018-02-20T07:13:28.687Z,107.57
2018-02-20T07:15:57.044Z,104.30
2018-02-20T07:18:25.403Z,102.10
2018-02-20T07:20:54.216Z,107.47
2018-02-20T07:23:22.572Z,111.87
2018-02-20T07:25:50.948Z,112.50
2018-02-20T07:28:19.744Z,105.10
2018-02-20T07:30:48.172Z,113.00
2018-02-20T07:33:16.822Z,102.83
2018-02-20T07:35:45.166Z,103.87
2018-02-20T07:38:13.521Z,106.57
2018-02-20T07:40:41.872Z,102.60
2018-02-20T07:43:10.278Z,102.30
2018-02-20T07:45:38.644Z,104.17
2018-02-20T07:48:07.015Z,110.80
2018-02-20T07:50:35.363Z,112.17
2018-02-20T07:53:03.740Z,113.23
2018-02-20T07:55:32.089Z,121.03
2018-02-20T07:58:00.474Z,129.90
2018-02-20T08:00:29.240Z,121.03
2018-02-20T08:02:57.616Z,106.13
2018-02-20T08:05:26.039Z,101.37
2018-02-20T08:07:54.404Z,93.90
2018-02-20T08:10:23.154Z,124.97
2018-02-20T08:12:51.520Z,98.33
2018-02-20T08:15:19.867Z,104.07
2018-02-20T08:17:48.254Z,108.30
2018-02-20T08:20:16.628Z,116.13
2018-02-20T08:22:45.050Z,106.43
2018-02-20T08:25:13.420Z,96.30
2018-02-20T08:27:41.792Z,102.30
2018-02-20T08:30:10.150Z,102.83
2018-02-20T08:32:38.548Z,97.40
2018-02-20T08:35:06.896Z,102.20
2018-02-20T08:37:35.256Z,101.10
2018-02-20T08:40:04.117Z,105.40
2018-02-20T08:42:32.512Z,101.63
2018-02-20T08:45:00.851Z,101.53
2018-02-20T08:47:29.216Z,100.93
2018-02-20T08:49:57.584Z,102.33
2018-02-20T08:52:25.963Z,105.07
2018-02-20T08:54:54.313Z,97.20
2018-02-20T08:57:23.077Z,93.43
2018-02-20T08:59:51.435Z,99.17
2018-02-20T09:02:19.943Z,95.37
2018-02-20T09:04:48.404Z,99.83
2018-02-20T09:07:16.789Z,91.97
2018-02-20T09:09:45.153Z,96.40
2018-02-20T09:12:13.548Z,103.93
2018-02-20T09:14:41.912Z,106.27
2018-02-20T09:17:10.291Z,99.97
2018-02-20T09:19:38.657Z,107.60
2018-02-20T09:22:07.035Z,120.20
2018-02-20T09:24:35.432Z,108.43
2018-02-20T09:27:04.250Z,120.90
2018-02-20T09:29:32.631Z,94.73
2018-02-20T09:32:01.000Z,104.20
2018-02-20T09:34:29.468Z,105.77
2018-02-20T09:36:57.838Z,109.07
2018-02-20T09:39:26.214Z,102.13
2018-02-20T09:41:54.570Z,102.33
2018-02-20T09:44:22.953Z,100.37
2018-02-20T09:46:51.309Z,97.70
2018-02-20T09:49:20.155Z,97.53
2018-02-20T09:51:48.533Z,97.50
2018-02-20T09:54:17.012Z,97.77
2018-02-20T09:56:45.380Z,101.27
2018-02-20T09:59:13.758Z,101.67
2018-02-20T10:01:42.148Z,96.43
2018-02-20T10:04:10.514Z,102.63
2018-02-20T10:06:38.878Z,111.63
2018-02-20T10:09:07.286Z,94.13
2018-02-20T10:11:35.645Z,105.20
2018-02-20T10:14:04.053Z,107.80
2018-02-20T10:16:32.429Z,91.43
2018-02-20T10:19:00.800Z,102.30
2018-02-20T10:21:29.159Z,95.40
2018-02-20T10:23:57.517Z,93.97
2018-02-20T10:26:25.937Z,97.93
2018-02-20T10:28:54.315Z,102.97
2018-02-20T10:31:22.678Z,109.30
2018-02-20T10:33:51.075Z,120.17
2018-02-20T10:36:19.433Z,97.40
2018-02-20T10:38:47.813Z,100.43
2018-02-20T10:41:16.188Z,99.17
2018-02-20T10:43:44.549Z,99.93
2018-02-20T10:46:12.932Z,90.47
2018-02-20T10:48:41.364Z,101.67
2018-02-20T10:51:09.730Z,103.47
2018-02-20T10:53:38.219Z,91.73
2018-02-20T10:56:06.656Z,96.77
2018-02-20T10:58:35.057Z,89.43
2018-02-20T11:01:03.453Z,88.37
2018-02-20T11:03:31.944Z,97.70
2018-02-20T11:06:00.419Z,92.73
2018-02-20T11:08:28.798Z,86.33
2018-02-20T11:10:57.259Z,97.47
2018-02-20T11:13:25.629Z,84.97
2018-02-20T11:15:54.012Z,92.33
2018-02-20T11:18:22.381Z,90.93
2018-02-20T11:20:50.759Z,94.53
2018-02-20T11:23:19.188Z,74.57
2018-02-20T11:25:47.637Z,93.37
2018-02-20T11:28:16.008Z,72.93
2018-02-20T11:30:44.470Z,78.77
2018-02-20T11:33:12.849Z,76.60
2018-02-20T11:35:41.220Z,85.87
2018-02-20T11:38:09.586Z,80.73
2018-02-20T11:40:38.425Z,69.47
2018-02-20T11:43:06.800Z,81.33
2018-02-20T11:45:35.169Z,72.03
2018-02-20T11:48:03.540Z,64.90
2018-02-20T11:50:31.941Z,64.97
2018-02-20T11:53:00.296Z,72.63
2018-02-20T11:55:28.649Z,75.27
2018-02-20T11:57:57.068Z,72.90
2018-02-20T12:00:25.413Z,67.50
2018-02-20T12:02:53.778Z,72.20
2018-02-20T12:05:22.132Z,69.13
2018-02-20T12:07:50.584Z,71.67
2018-02-20T12:10:18.929Z,66.07
2018-02-20T12:12:47.288Z,62.67
2018-02-20T12:15:16.045Z,63.33
2018-02-20T12:17:44.487Z,66.60
2018-02-20T12:20:12.881Z,67.63
2018-02-20T12:22:41.234Z,61.77
2018-02-20T12:25:09.611Z,57.90
2018-02-20T12:27:37.970Z,67.70
2018-02-20T12:30:06.813Z,61.23
2018-02-20T12:32:35.176Z,58.37
2018-02-20T12:35:03.579Z,55.30
2018-02-20T12:37:31.961Z,60.17
2018-02-20T12:40:00.337Z,49.67
2018-02-20T12:42:29.123Z,51.90
2018-02-20T12:44:57.484Z,50.63
2018-02-20T12:47:25.866Z,43.30
2018-02-20T12:49:54.252Z,49.37
2018-02-20T12:52:22.619Z,48.10
2018-02-20T12:54:50.972Z,42.03
2018-02-20T12:57:19.320Z,54.67
2018-02-20T12:59:47.676Z,48.00
2018-02-20T13:02:16.048Z,44.17
2018-02-20T13:04:44.420Z,48.57
2018-02-20T13:07:12.783Z,58.00
2018-02-20T13:09:41.184Z,46.67
2018-02-20T13:12:09.568Z,54.33
2018-02-20T13:14:37.930Z,52.53
2018-02-20T13:17:06.328Z,46.30
2018-02-20T13:19:34.682Z,47.27
2018-02-20T13:22:03.091Z,53.10
2018-02-20T13:24:31.447Z,48.07
2018-02-20T13:26:59.800Z,54.70
2018-02-20T13:29:28.159Z,44.40
2018-02-20T13:31:56.930Z,51.60
2018-02-20T13:34:25.325Z,52.80
2018-02-20T13:36:54.180Z,48.60
2018-02-20T13:39:22.529Z,51.97
2018-02-20T13:41:50.891Z,54.50
2018-02-20T13:44:19.251Z,51.07
2018-02-20T13:46:48.100Z,61.10
2018-02-20T13:49:16.484Z,58.23
2018-02-20T13:51:44.859Z,58.03
2018-02-20T13:54:13.226Z,50.30
2018-02-20T13:56:41.606Z,54.47
2018-02-20T13:59:10.007Z,55.67
2018-02-20T14:01:38.467Z,52.23
2018-02-20T14:04:06.823Z,48.40
2018-02-20T14:06:35.172Z,58.40
2018-02-20T14:09:03.917Z,54.10
2018-02-20T14:11:32.372Z,46.77
2018-02-20T14:14:00.737Z,41.77
2018-02-20T14:16:29.089Z,43.60
2018-02-20T14:18:57.465Z,55.40
2018-02-20T14:21:25.833Z,46.30
2018-02-20T14:23:54.290Z,45.33
2018-02-20T14:26:22.673Z,47.77
2018-02-20T14:28:51.035Z,50.83
2018-02-20T14:31:19.433Z,43.20
2018-02-20T14:33:47.792Z,47.03
2018-02-20T14:36:16.184Z,44.30
2018-02-20T14:38:44.570Z,45.73
2018-02-20T14:41:12.931Z,47.90
2018-02-20T14:43:41.300Z,40.10
2018-02-20T14:46:09.722Z,44.57
2018-02-20T14:48:38.179Z,44.90
2018-02-20T14:51:06.549Z,49.40
2018-02-20T14:53:34.949Z,60.23
2018-02-20T14:56:03.320Z,42.37
2018-02-20T14:58:31.685Z,38.97
2018-02-20T15:01:00.071Z,34.33
2018-02-20T15:03:28.418Z,35.60
2018-02-20T15:05:56.810Z,33.57
2018-02-20T15:08:25.170Z,54.33
2018-02-20T15:10:53.587Z,35.53
2018-02-20T15:13:21.966Z,36.60
2018-02-20T15:15:50.366Z,29.80
2018-02-20T15:18:18.728Z,36.53
2018-02-20T15:20:47.125Z,38.47
2018-02-20T15:23:15.481Z,31.20
2018-02-20T15:25:43.869Z,33.00
2018-02-20T15:28:12.226Z,29.77
2018-02-20T15:30:40.584Z,29.80
2018-02-20T15:33:09.005Z,31.13
2018-02-20T15:35:37.366Z,27.33
2018-02-20T15:38:05.731Z,33.97
2018-02-20T15:40:34.164Z,28.60
2018-02-20T15:43:02.550Z,31.20
2018-02-20T15:45:31.309Z,25.40
2018-02-20T15:47:59.673Z,28.80
2018-02-20T15:50:28.044Z,30.10
2018-02-20T15:52:56.405Z,32.23
2018-02-20T15:55:24.783Z,30.90
2018-02-20T15:57:53.145Z,27.00
2018-02-20T16:00:21.497Z,25.13
2018-02-20T16:02:49.981Z,25.93
2018-02-20T16:05:18.337Z,32.27
2018-02-20T16:07:46.682Z,29.00
2018-02-20T16:10:15.040Z,33.20
2018-02-20T16:12:44.069Z,27.40
2018-02-20T16:15:12.427Z,26.20
2018-02-20T16:17:40.785Z,27.77
2018-02-20T16:20:09.752Z,22.67
2018-02-20T16:22:38.103Z,33.43
2018-02-20T16:25:06.464Z,26.90
2018-02-20T16:27:34.828Z,24.40
2018-02-20T16:30:03.419Z,32.20
2018-02-20T16:32:31.780Z,28.80
2018-02-20T16:35:00.534Z,31.00
2018-02-20T16:37:28.904Z,32.70
2018-02-20T16:39:57.274Z,36.33
2018-02-20T16:42:25.642Z,32.13
2018-02-20T16:44:54.021Z,31.13
2018-02-20T16:47:22.397Z,31.20
2018-02-20T16:49:50.780Z,36.97
2018-02-20T16:52:19.150Z,28.43
2018-02-20T16:54:47.530Z,25.50
2018-02-20T16:57:15.885Z,25.50
2018-02-20T16:59:44.271Z,35.63
2018-02-20T17:02:12.725Z,27.87
2018-02-20T17:04:41.585Z,30.03
2018-02-20T17:07:09.943Z,31.20
2018-02-20T17:09:38.309Z,28.50
2018-02-20T17:12:06.674Z,29.77
2018-02-20T17:14:35.059Z,26.50
2018-02-20T17:17:03.450Z,27.80
2018-02-20T17:19:31.813Z,28.13
2018-02-20T17:22:00.435Z,27.10
2018-02-20T17:24:28.800Z,46.27
2018-02-20T17:26:57.477Z,25.67
2018-02-20T17:29:25.882Z,29.70
2018-02-20T17:31:54.236Z,27.93
2018-02-20T17:34:22.709Z,26.67
2018-02-20T17:36:51.078Z,28.80
2018-02-20T17:39:19.457Z,32.80
2018-02-20T17:41:47.821Z,34.83
2018-02-20T17:44:16.200Z,31.83
2018-02-20T17:46:44.950Z,31.30
2018-02-20T17:49:13.350Z,32.07
2018-02-20T17:51:41.709Z,29.90
2018-02-20T17:54:10.075Z,29.23
2018-02-20T17:56:38.429Z,37.97
2018-02-20T17:59:07.233Z,27.87
2018-02-20T18:01:35.607Z,37.63
2018-02-20T18:04:03.969Z,27.13
2018-02-20T18:06:32.339Z,31.00
2018-02-20T18:09:00.714Z,32.00
2018-02-20T18:11:29.117Z,33.10
2018-02-20T18:13:57.502Z,35.60
2018-02-20T18:16:25.855Z,31.33
2018-02-20T18:18:54.236Z,36.00
2018-02-20T18:21:22.622Z,30.13
2018-02-20T18:23:50.996Z,42.03
2018-02-20T18:26:19.592Z,33.57
2018-02-20T18:28:48.014Z,51.77
2018-02-20T18:31:16.390Z,35.70
2018-02-20T18:33:44.890Z,33.40
2018-02-20T18:36:14.577Z,46.83
2018-02-20T18:38:42.956Z,37.50
2018-02-20T18:41:11.357Z,37.00
2018-02-20T18:43:40.120Z,38.50
2018-02-20T18:46:08.517Z,35.13
2018-02-20T18:48:37.484Z,44.97
2018-02-20T18:51:05.875Z,29.23
2018-02-20T18:53:34.271Z,35.70
2018-02-20T18:56:03.040Z,45.77
2018-02-20T18:58:31.504Z,32.43
2018-02-20T19:00:59.874Z,36.43
2018-02-20T19:03:28.237Z,36.33
2018-02-20T19:05:56.645Z,40.47
2018-02-20T19:08:25.029Z,38.40
2018-02-20T19:10:55.986Z,39.20
2018-02-20T19:13:24.365Z,46.37
2018-02-20T19:15:52.745Z,50.60
2018-02-20T19:18:21.109Z,40.60
2018-02-20T19:20:49.465Z,38.03
2018-02-20T19:23:17.853Z,35.33
2018-02-20T19:25:46.241Z,44.33
2018-02-20T19:28:14.601Z,49.93
2018-02-20T19:30:42.991Z,47.00
2018-02-20T19:33:11.454Z,41.73
2018-02-20T19:35:39.816Z,46.53
2018-02-20T19:38:08.175Z,38.43
2018-02-20T19:40:36.954Z,51.73
2018-02-20T19:43:05.319Z,49.83
2018-02-20T19:45:33.797Z,42.83
2018-02-20T19:48:02.155Z,43.53
2018-02-20T19:50:30.523Z,46.27
2018-02-20T19:52:58.892Z,46.80
2018-02-20T19:55:27.260Z,43.87
2018-02-20T19:57:55.630Z,51.57
2018-02-20T20:00:24.076Z,44.07
2018-02-20T20:02:52.421Z,44.23
2018-02-20T20:05:20.789Z,49.97
2018-02-20T20:07:49.148Z,48.97
2018-02-20T20:10:17.528Z,49.33
2018-02-20T20:12:46.001Z,52.40
2018-02-20T20:15:14.328Z,52.80
2018-02-20T20:17:42.698Z,46.50
2018-02-20T20:20:11.060Z,54.50
2018-02-20T20:22:39.443Z,47.57
2018-02-20T20:25:07.825Z,51.37
2018-02-20T20:27:36.203Z,48.23
2018-02-20T20:30:04.616Z,49.43
2018-02-20T20:32:32.994Z,46.90
2018-02-20T20:35:01.374Z,49.87
2018-02-20T20:37:29.741Z,45.00
2018-02-20T20:39:58.121Z,48.37
2018-02-20T20:42:26.535Z,53.10
2018-02-20T20:44:55.361Z,49.93
2018-02-20T20:47:23.729Z,46.83
2018-02-20T20:49:52.110Z,58.40
2018-02-20T20:52:20.469Z,54.97
2018-02-20T20:54:49.279Z,52.60
2018-02-20T20:57:17.629Z,59.03
2018-02-20T20:59:46.445Z,56.70
2018-02-20T21:02:14.931Z,57.70
2018-02-20T21:04:43.305Z,58.30
2018-02-20T21:07:11.668Z,60.20
2018-02-20T21:09:40.111Z,58.03
2018-02-20T21:12:08.900Z,65.13
2018-02-20T21:14:37.274Z,59.73
2018-02-20T21:17:05.641Z,54.67
2018-02-20T21:19:34.053Z,61.20
2018-02-20T21:22:02.471Z,59.90
2018-02-20T21:24:30.841Z,67.13
2018-02-20T21:26:59.212Z,64.60
2018-02-20T21:29:27.594Z,59.60
2018-02-20T21:31:57.403Z,65.60
2018-02-20T21:34:25.825Z,56.00
2018-02-20T21:36:54.189Z,57.27
2018-02-20T21:39:22.561Z,61.40
2018-02-20T21:41:50.953Z,68.17
2018-02-20T21:44:19.322Z,55.77
2018-02-20T21:46:47.691Z,60.90
2018-02-20T21:49:16.059Z,61.83
2018-02-20T21:51:44.450Z,54.50
2018-02-20T21:54:12.853Z,49.33
2018-02-20T21:56:41.232Z,64.63
2018-02-20T21:59:09.599Z,53.93
2018-02-20T22:01:37.972Z,53.37
2018-02-20T22:04:06.360Z,52.07
2018-02-20T22:06:34.752Z,56.77
2018-02-20T22:09:03.124Z,59.67
2018-02-20T22:11:31.491Z,60.67
2018-02-20T22:13:59.858Z,58.13
2018-02-20T22:16:28.221Z,70.43
2018-02-20T22:18:56.581Z,54.23
2018-02-20T22:21:25.339Z,53.43
2018-02-20T22:23:53.700Z,49.87
2018-02-20T22:26:22.080Z,54.60
2018-02-20T22:28:50.445Z,52.87
2018-02-20T22:31:18.821Z,48.40
2018-02-20T22:33:47.236Z,50.17
2018-02-20T22:36:15.921Z,55.83
2018-02-20T22:38:44.322Z,55.40
2018-02-20T22:41:13.097Z,46.80
2018-02-20T22:43:41.461Z,51.70
2018-02-20T22:46:09.914Z,45.50
2018-02-20T22:48:38.272Z,60.13
2018-02-20T22:51:06.670Z,61.13
2018-02-20T22:53:35.085Z,40.97
2018-02-20T22:56:03.474Z,63.73
2018-02-20T22:58:31.846Z,56.13
2018-02-20T23:01:00.228Z,51.57
2018-02-20T23:03:28.593Z,46.30
2018-02-20T23:05:56.981Z,49.03
2018-02-20T23:08:25.355Z,61.03
2018-02-20T23:10:53.741Z,51.37
2018-02-20T23:13:22.123Z,61.13
2018-02-20T23:15:50.496Z,42.67
2018-02-20T23:18:18.866Z,51.47
2018-02-20T23:20:47.276Z,54.37
2018-02-20T23:23:16.036Z,48.90
2018-02-20T23:25:44.398Z,48.60
2018-02-20T23:28:12.766Z,49.67
2018-02-20T23:30:41.160Z,48.87
2018-02-20T23:33:09.524Z,51.00
2018-02-20T23:35:37.898Z,46.10
2018-02-20T23:38:06.269Z,47.50
2018-02-20T23:40:34.653Z,55.17
2018-02-20T23:43:03.031Z,44.83
2018-02-20T23:45:31.410Z,50.07
2018-02-20T23:47:59.780Z,51.07
2018-02-20T23:50:28.172Z,53.53
2018-02-20T23:52:56.562Z,54.23
2018-02-20T23:55:24.949Z,52.23
2018-02-20T23:57:53.333Z,51.07
